Time,TemperatureF,DewpointF,PressureIn,WindDirection,WindDirectionDegrees,WindSpeedMPH,WindSpeedGustMPH,Humidity,HourlyPrecipIn,Conditions,Clouds,dailyrainin,SoftwareType,DateUTC
2013-01-28 00:10:00,24.3,17.5,30.12,NE,45,0.0,-999.0,75,-99.99,,,0.00,Acu-Link.com,2013-01-28 05:10:00,
2013-01-28 00:26:00,24.4,17.6,30.11,East,90,0.0,-999.0,75,-99.99,,,0.00,Acu-Link.com,2013-01-28 05:26:00,
2013-01-28 00:41:00,24.8,18.0,30.10,East,90,0.0,-999.0,75,-99.99,,,0.00,Acu-Link.com,2013-01-28 05:41:00,
2013-01-28 00:56:00,25.0,18.5,30.10,East,90,0.0,-999.0,76,-99.99,,,0.00,Acu-Link.com,2013-01-28 05:56:00,
2013-01-28 01:12:00,25.2,18.7,30.09,East,90,0.0,-999.0,76,-99.99,,,0.00,Acu-Link.com,2013-01-28 06:12:00,
2013-01-28 01:27:00,25.3,18.8,30.09,North,0,0.0,-999.0,76,-99.99,,,0.00,Acu-Link.com,2013-01-28 06:27:00,
2013-01-28 01:42:00,25.5,19.3,30.08,North,0,0.0,-999.0,77,-99.99,,,0.00,Acu-Link.com,2013-01-28 06:42:00,
2013-01-28 01:58:00,25.5,19.3,30.07,South,180,0.0,-999.0,77,-99.99,,,0.00,Acu-Link.com,2013-01-28 06:58:00,
2013-01-28 02:13:00,25.7,19.5,30.07,South,180,0.0,-999.0,77,-99.99,,,0.00,Acu-Link.com,2013-01-28 07:13:00,
2013-01-28 02:28:00,25.9,20.0,30.07,SSE,157,0.0,-999.0,78,-99.99,,,0.00,Acu-Link.com,2013-01-28 07:28:00,
2013-01-28 02:43:00,25.9,20.0,30.06,SSE,157,0.0,-999.0,78,-99.99,,,0.00,Acu-Link.com,2013-01-28 07:43:00,
2013-01-28 02:59:00,26.1,20.2,30.05,SSE,157,0.0,-999.0,78,-99.99,,,0.00,Acu-Link.com,2013-01-28 07:59:00,
2013-01-28 03:14:00,26.2,20.6,30.03,West,270,0.0,-999.0,79,-99.99,,,0.00,Acu-Link.com,2013-01-28 08:14:00,
2013-01-28 03:29:00,26.6,21.0,30.04,NW,315,0.0,-999.0,79,-99.99,,,0.00,Acu-Link.com,2013-01-28 08:29:00,
2013-01-28 03:45:00,26.8,21.5,30.03,East,90,0.0,-999.0,80,-99.99,,,0.00,Acu-Link.com,2013-01-28 08:45:00,
2013-01-28 04:00:00,26.8,22.1,30.03,East,90,0.0,-999.0,82,-99.99,,,0.00,Acu-Link.com,2013-01-28 09:00:00,
2013-01-28 04:15:00,26.8,22.3,30.03,West,270,0.0,-999.0,83,-99.99,,,0.00,Acu-Link.com,2013-01-28 09:15:00,
2013-01-28 04:31:00,26.8,23.5,30.00,East,90,0.0,-999.0,87,-99.99,,,0.00,Acu-Link.com,2013-01-28 09:31:00,
2013-01-28 04:46:00,27.0,24.5,30.00,NE,45,0.0,-999.0,90,-99.99,,,0.00,Acu-Link.com,2013-01-28 09:46:00,
2013-01-28 05:01:00,27.1,24.8,29.96,ESE,112,0.0,-999.0,91,-99.99,,,0.00,Acu-Link.com,2013-01-28 10:01:00,
2013-01-28 05:16:00,27.3,25.8,29.96,ESE,112,2.2,-999.0,94,-99.99,,,0.00,Acu-Link.com,2013-01-28 10:16:00,
2013-01-28 05:31:00,27.5,26.0,29.95,ESE,112,2.7,-999.0,94,-99.99,,,0.00,Acu-Link.com,2013-01-28 10:31:00,
2013-01-28 05:47:00,27.7,27.2,29.94,East,90,0.0,-999.0,98,-99.99,,,0.00,Acu-Link.com,2013-01-28 10:47:00,
2013-01-28 06:02:00,27.7,27.2,29.91,East,90,1.1,-999.0,98,-99.99,,,0.00,Acu-Link.com,2013-01-28 11:02:00,
2013-01-28 06:17:00,28.2,27.7,29.90,ESE,112,1.1,-999.0,98,-99.99,,,0.00,Acu-Link.com,2013-01-28 11:17:00,
2013-01-28 06:33:00,28.8,28.3,29.89,East,90,1.7,-999.0,98,-99.99,,,0.00,Acu-Link.com,2013-01-28 11:33:00,
2013-01-28 06:48:00,30.0,29.5,29.87,ESE,112,0.0,-999.0,98,-99.99,,,0.00,Acu-Link.com,2013-01-28 11:48:00,
2013-01-28 07:03:00,30.7,30.2,29.85,ENE,67,4.7,-999.0,98,-99.99,,,0.00,Acu-Link.com,2013-01-28 12:03:00,
2013-01-28 07:18:00,31.1,30.6,29.86,West,270,1.1,-999.0,98,-99.99,,,0.00,Acu-Link.com,2013-01-28 12:18:00,
2013-01-28 07:34:00,31.5,31.0,29.85,ENE,67,0.0,-999.0,98,-99.99,,,0.00,Acu-Link.com,2013-01-28 12:34:00,
2013-01-28 07:49:00,31.8,31.3,29.84,ESE,112,0.0,-999.0,98,-99.99,,,0.01,Acu-Link.com,2013-01-28 12:49:00,
2013-01-28 08:04:00,32.0,31.5,29.82,ESE,112,1.7,-999.0,98,-99.99,,,0.04,Acu-Link.com,2013-01-28 13:04:00,
2013-01-28 08:20:00,32.2,31.7,29.82,NE,45,0.0,-999.0,98,-99.99,,,0.07,Acu-Link.com,2013-01-28 13:20:00,
2013-01-28 08:35:00,32.4,31.9,29.83,West,270,0.0,-999.0,98,-99.99,,,0.09,Acu-Link.com,2013-01-28 13:35:00,
2013-01-28 08:50:00,32.4,31.9,29.80,ESE,112,0.0,-999.0,98,-99.99,,,0.10,Acu-Link.com,2013-01-28 13:50:00,
2013-01-28 09:06:00,33.1,32.6,29.78,East,90,0.0,-999.0,98,-99.99,,,0.10,Acu-Link.com,2013-01-28 14:06:00,
2013-01-28 09:21:00,33.4,32.9,29.78,SSE,157,0.0,-999.0,98,-99.99,,,0.11,Acu-Link.com,2013-01-28 14:21:00,
2013-01-28 09:36:00,33.4,32.9,29.77,ESE,112,0.0,-999.0,98,-99.99,,,0.11,Acu-Link.com,2013-01-28 14:36:00,
2013-01-28 09:52:00,33.8,33.3,29.75,South,180,0.0,-999.0,98,-99.99,,,0.12,Acu-Link.com,2013-01-28 14:52:00,
2013-01-28 10:07:00,35.2,34.7,29.75,South,180,2.2,-999.0,98,-99.99,,,0.12,Acu-Link.com,2013-01-28 15:07:00,
2013-01-28 10:22:00,35.6,35.1,29.75,West,270,0.0,-999.0,98,-99.99,,,0.13,Acu-Link.com,2013-01-28 15:22:00,
2013-01-28 10:38:00,36.0,35.5,29.75,SW,225,0.0,-999.0,98,-99.99,,,0.15,Acu-Link.com,2013-01-28 15:38:00,
2013-01-28 10:53:00,36.9,36.4,29.75,WSW,247,2.2,-999.0,98,-99.99,,,0.20,Acu-Link.com,2013-01-28 15:53:00,
2013-01-28 11:09:00,37.2,36.7,29.74,South,180,1.1,-999.0,98,-99.99,,,0.22,Acu-Link.com,2013-01-28 16:09:00,
2013-01-28 11:24:00,37.4,36.9,29.74,SSE,157,5.3,-999.0,98,-99.99,,,0.25,Acu-Link.com,2013-01-28 16:24:00,
2013-01-28 11:39:00,37.6,37.1,29.72,SSW,202,3.7,-999.0,98,-99.99,,,0.28,Acu-Link.com,2013-01-28 16:39:00,
2013-01-28 11:54:00,37.6,37.1,29.71,South,180,3.7,-999.0,98,-99.99,,,0.30,Acu-Link.com,2013-01-28 16:54:00,
2013-01-28 12:10:00,37.9,37.4,29.72,SW,225,2.7,-999.0,98,-99.99,,,0.34,Acu-Link.com,2013-01-28 17:10:00,
2013-01-28 12:25:00,38.3,37.8,29.70,South,180,2.2,-999.0,98,-99.99,,,0.36,Acu-Link.com,2013-01-28 17:25:00,
2013-01-28 12:40:00,38.1,37.6,29.69,SSE,157,2.2,-999.0,98,-99.99,,,0.38,Acu-Link.com,2013-01-28 17:40:00,
2013-01-28 12:56:00,38.5,38.0,29.68,SW,225,2.7,-999.0,98,-99.99,,,0.40,Acu-Link.com,2013-01-28 17:56:00,
2013-01-28 13:11:00,39.0,38.5,29.67,WSW,247,2.2,-999.0,98,-99.99,,,0.43,Acu-Link.com,2013-01-28 18:11:00,
2013-01-28 13:26:00,39.4,38.9,29.66,WSW,247,1.7,-999.0,98,-99.99,,,0.45,Acu-Link.com,2013-01-28 18:26:00,
2013-01-28 13:42:00,39.4,38.9,29.65,South,180,2.7,-999.0,98,-99.99,,,0.47,Acu-Link.com,2013-01-28 18:42:00,
2013-01-28 13:57:00,39.6,39.1,29.64,WSW,247,2.2,-999.0,98,-99.99,,,0.48,Acu-Link.com,2013-01-28 18:57:00,
2013-01-28 14:12:00,39.6,39.1,29.64,SW,225,2.7,-999.0,98,-99.99,,,0.52,Acu-Link.com,2013-01-28 19:12:00,
2013-01-28 14:28:00,39.4,38.9,29.63,SSW,202,2.7,-999.0,98,-99.99,,,0.54,Acu-Link.com,2013-01-28 19:28:00,
2013-01-28 14:43:00,39.6,39.1,29.63,WSW,247,2.7,-999.0,98,-99.99,,,0.55,Acu-Link.com,2013-01-28 19:43:00,
2013-01-28 14:58:00,39.7,39.2,29.64,West,270,2.7,-999.0,98,-99.99,,,0.57,Acu-Link.com,2013-01-28 19:58:00,
2013-01-28 15:14:00,39.7,39.2,29.64,SW,225,2.7,-999.0,98,-99.99,,,0.59,Acu-Link.com,2013-01-28 20:14:00,
2013-01-28 15:29:00,40.1,39.6,29.65,WSW,247,2.7,-999.0,98,-99.99,,,0.62,Acu-Link.com,2013-01-28 20:29:00,
2013-01-28 15:44:00,40.6,40.1,29.64,West,270,2.7,-999.0,98,-99.99,,,0.63,Acu-Link.com,2013-01-28 20:44:00,
2013-01-28 15:59:00,41.4,40.9,29.64,West,270,2.7,-999.0,98,-99.99,,,0.64,Acu-Link.com,2013-01-28 20:59:00,
2013-01-28 16:15:00,41.7,41.2,29.65,West,270,2.7,-999.0,98,-99.99,,,0.67,Acu-Link.com,2013-01-28 21:15:00,
2013-01-28 16:30:00,41.9,41.4,29.64,WNW,292,5.8,-999.0,98,-99.99,,,0.70,Acu-Link.com,2013-01-28 21:30:00,
2013-01-28 16:45:00,41.9,41.4,29.64,SW,225,3.2,-999.0,98,-99.99,,,0.70,Acu-Link.com,2013-01-28 21:45:00,
2013-01-28 17:01:00,41.7,41.2,29.65,SSW,202,6.3,-999.0,98,-99.99,,,0.71,Acu-Link.com,2013-01-28 22:01:00,
2013-01-28 17:16:00,41.7,41.2,29.64,West,270,6.8,-999.0,98,-99.99,,,0.71,Acu-Link.com,2013-01-28 22:16:00,
2013-01-28 17:31:00,41.7,41.2,29.65,West,270,6.8,-999.0,98,-99.99,,,0.72,Acu-Link.com,2013-01-28 22:31:00,
2013-01-28 17:46:00,41.7,41.2,29.65,WSW,247,4.7,-999.0,98,-99.99,,,0.72,Acu-Link.com,2013-01-28 22:46:00,
2013-01-28 18:02:00,41.9,41.4,29.66,WSW,247,2.7,-999.0,98,-99.99,,,0.72,Acu-Link.com,2013-01-28 23:02:00,
2013-01-28 18:17:00,42.1,41.6,29.67,West,270,5.8,-999.0,98,-99.99,,,0.73,Acu-Link.com,2013-01-28 23:17:00,
2013-01-28 18:32:00,41.9,41.4,29.67,WSW,247,4.2,-999.0,98,-99.99,,,0.73,Acu-Link.com,2013-01-28 23:32:00,
2013-01-28 18:48:00,41.7,41.2,29.67,West,270,4.7,-999.0,98,-99.99,,,0.73,Acu-Link.com,2013-01-28 23:48:00,
2013-01-28 19:03:00,41.5,41.0,29.69,West,270,4.7,-999.0,98,-99.99,,,0.73,Acu-Link.com,2013-01-29 00:03:00,
2013-01-28 19:18:00,41.4,40.9,29.70,West,270,2.7,-999.0,98,-99.99,,,0.73,Acu-Link.com,2013-01-29 00:18:00,
2013-01-28 19:34:00,41.0,40.5,29.69,WSW,247,3.2,-999.0,98,-99.99,,,0.73,Acu-Link.com,2013-01-29 00:34:00,
2013-01-28 19:49:00,40.8,40.3,29.69,WSW,247,2.2,-999.0,98,-99.99,,,0.73,Acu-Link.com,2013-01-29 00:49:00,
2013-01-28 20:04:00,40.6,40.1,29.70,NNW,337,3.2,-999.0,98,-99.99,,,0.73,Acu-Link.com,2013-01-29 01:04:00,
2013-01-28 20:20:00,40.6,40.1,29.72,WSW,247,2.2,-999.0,98,-99.99,,,0.73,Acu-Link.com,2013-01-29 01:20:00,
2013-01-28 20:35:00,40.3,39.8,29.71,SW,225,1.7,-999.0,98,-99.99,,,0.73,Acu-Link.com,2013-01-29 01:35:00,
2013-01-28 20:50:00,40.3,39.8,29.71,West,270,2.7,-999.0,98,-99.99,,,0.73,Acu-Link.com,2013-01-29 01:50:00,
2013-01-28 21:05:00,40.1,39.6,29.73,West,270,2.7,-999.0,98,-99.99,,,0.73,Acu-Link.com,2013-01-29 02:05:00,
2013-01-28 21:21:00,40.1,39.6,29.73,West,270,2.7,-999.0,98,-99.99,,,0.73,Acu-Link.com,2013-01-29 02:21:00,
2013-01-28 21:36:00,40.3,39.8,29.74,WSW,247,0.0,-999.0,98,-99.99,,,0.73,Acu-Link.com,2013-01-29 02:36:00,
2013-01-28 21:51:00,40.3,39.8,29.74,West,270,2.2,-999.0,98,-99.99,,,0.73,Acu-Link.com,2013-01-29 02:51:00,
2013-01-28 22:07:00,40.5,40.0,29.74,SW,225,0.0,-999.0,98,-99.99,,,0.73,Acu-Link.com,2013-01-29 03:07:00,
2013-01-28 22:22:00,40.5,40.0,29.75,West,270,2.2,-999.0,98,-99.99,,,0.73,Acu-Link.com,2013-01-29 03:22:00,
2013-01-28 22:37:00,40.5,40.0,29.76,West,270,3.2,-999.0,98,-99.99,,,0.73,Acu-Link.com,2013-01-29 03:37:00,
2013-01-28 22:53:00,40.3,39.8,29.76,WNW,292,1.1,-999.0,98,-99.99,,,0.73,Acu-Link.com,2013-01-29 03:53:00,
2013-01-28 23:08:00,40.1,39.6,29.77,West,270,1.7,-999.0,98,-99.99,,,0.73,Acu-Link.com,2013-01-29 04:08:00,
2013-01-28 23:23:00,40.1,39.6,29.79,WNW,292,1.7,-999.0,98,-99.99,,,0.73,Acu-Link.com,2013-01-29 04:23:00,
2013-01-28 23:39:00,39.7,39.2,29.78,WNW,292,2.2,-999.0,98,-99.99,,,0.73,Acu-Link.com,2013-01-29 04:39:00,
2013-01-28 23:54:00,39.4,38.9,29.80,West,270,2.2,-999.0,98,-99.99,,,0.73,Acu-Link.com,2013-01-29 04:54:00,